sensor_id;sensor_type;location;lat;lon;timestamp;temperature;humidity
47022;DHT22;32779;52.264;6.154;2023-05-07T00:00:21;14.90;99.90
47022;DHT22;32779;52.264;6.154;2023-05-07T00:02:47;14.90;99.90
47022;DHT22;32779;52.264;6.154;2023-05-07T00:05:13;14.90;99.90
47022;DHT22;32779;52.264;6.154;2023-05-07T00:07:38;14.90;99.90
47022;DHT22;32779;52.264;6.154;2023-05-07T00:10:04;14.90;99.90
47022;DHT22;32779;52.264;6.154;2023-05-07T00:12:32;14.90;99.90
47022;DHT22;32779;52.264;6.154;2023-05-07T00:15:00;14.90;99.90
47022;DHT22;32779;52.264;6.154;2023-05-07T00:17:25;14.90;99.90
47022;DHT22;32779;52.264;6.154;2023-05-07T00:19:51;14.90;99.90
47022;DHT22;32779;52.264;6.154;2023-05-07T00:22:16;14.90;99.90
47022;DHT22;32779;52.264;6.154;2023-05-07T00:24:42;14.90;99.90
47022;DHT22;32779;52.264;6.154;2023-05-07T00:27:08;14.90;99.90
47022;DHT22;32779;52.264;6.154;2023-05-07T00:29:33;14.90;99.90
47022;DHT22;32779;52.264;6.154;2023-05-07T00:31:59;14.90;99.90
47022;DHT22;32779;52.264;6.154;2023-05-07T00:34:24;14.90;99.90
47022;DHT22;32779;52.264;6.154;2023-05-07T00:36:50;14.90;99.90
47022;DHT22;32779;52.264;6.154;2023-05-07T00:39:15;14.90;99.90
47022;DHT22;32779;52.264;6.154;2023-05-07T00:41:41;14.90;99.90
47022;DHT22;32779;52.264;6.154;2023-05-07T00:44:06;14.90;99.90
47022;DHT22;32779;52.264;6.154;2023-05-07T00:46:32;14.90;99.90
47022;DHT22;32779;52.264;6.154;2023-05-07T00:48:58;14.90;99.90
47022;DHT22;32779;52.264;6.154;2023-05-07T00:51:25;14.90;99.90
47022;DHT22;32779;52.264;6.154;2023-05-07T00:53:53;14.90;99.90
47022;DHT22;32779;52.264;6.154;2023-05-07T00:56:18;14.90;99.90
47022;DHT22;32779;52.264;6.154;2023-05-07T00:58:45;14.90;99.90
47022;DHT22;32779;52.264;6.154;2023-05-07T01:01:11;14.90;99.90
47022;DHT22;32779;52.264;6.154;2023-05-07T01:03:36;14.90;99.90
47022;DHT22;32779;52.264;6.154;2023-05-07T01:06:02;14.90;99.90
47022;DHT22;32779;52.264;6.154;2023-05-07T01:08:29;15.00;99.90
47022;DHT22;32779;52.264;6.154;2023-05-07T01:10:56;15.00;99.90
47022;DHT22;32779;52.264;6.154;2023-05-07T01:13:23;15.00;99.90
47022;DHT22;32779;52.264;6.154;2023-05-07T01:15:50;14.90;99.90
47022;DHT22;32779;52.264;6.154;2023-05-07T01:18:15;14.90;99.90
47022;DHT22;32779;52.264;6.154;2023-05-07T01:20:41;14.90;99.90
47022;DHT22;32779;52.264;6.154;2023-05-07T01:23:07;14.90;99.90
47022;DHT22;32779;52.264;6.154;2023-05-07T01:25:34;14.90;99.90
47022;DHT22;32779;52.264;6.154;2023-05-07T01:28:00;14.90;99.90
47022;DHT22;32779;52.264;6.154;2023-05-07T01:30:27;14.80;99.90
47022;DHT22;32779;52.264;6.154;2023-05-07T01:35:30;14.90;99.90
47022;DHT22;32779;52.264;6.154;2023-05-07T01:37:57;14.90;99.90
47022;DHT22;32779;52.264;6.154;2023-05-07T01:40:24;14.80;99.90
47022;DHT22;32779;52.264;6.154;2023-05-07T01:42:51;14.70;99.90
47022;DHT22;32779;52.264;6.154;2023-05-07T01:45:17;14.70;99.90
47022;DHT22;32779;52.264;6.154;2023-05-07T01:47:43;14.70;99.90
47022;DHT22;32779;52.264;6.154;2023-05-07T01:50:09;14.70;99.90
47022;DHT22;32779;52.264;6.154;2023-05-07T01:52:37;14.70;99.90
47022;DHT22;32779;52.264;6.154;2023-05-07T01:55:04;14.70;99.90
47022;DHT22;32779;52.264;6.154;2023-05-07T01:57:30;14.70;99.90
47022;DHT22;32779;52.264;6.154;2023-05-07T01:59:55;14.70;99.90
47022;DHT22;32779;52.264;6.154;2023-05-07T02:02:21;14.70;99.90
47022;DHT22;32779;52.264;6.154;2023-05-07T02:04:46;14.70;99.90
47022;DHT22;32779;52.264;6.154;2023-05-07T02:07:12;14.70;99.90
47022;DHT22;32779;52.264;6.154;2023-05-07T02:09:37;14.70;99.90
47022;DHT22;32779;52.264;6.154;2023-05-07T02:12:03;14.70;99.90
47022;DHT22;32779;52.264;6.154;2023-05-07T02:14:29;14.60;99.90
47022;DHT22;32779;52.264;6.154;2023-05-07T02:16:54;14.60;99.90
47022;DHT22;32779;52.264;6.154;2023-05-07T02:19:20;14.60;99.90
47022;DHT22;32779;52.264;6.154;2023-05-07T02:21:46;14.60;99.90
47022;DHT22;32779;52.264;6.154;2023-05-07T02:24:13;14.60;99.90
47022;DHT22;32779;52.264;6.154;2023-05-07T02:26:40;14.60;99.90
47022;DHT22;32779;52.264;6.154;2023-05-07T02:29:05;14.60;99.90
47022;DHT22;32779;52.264;6.154;2023-05-07T02:31:31;14.60;99.90
47022;DHT22;32779;52.264;6.154;2023-05-07T02:33:56;14.60;99.90
47022;DHT22;32779;52.264;6.154;2023-05-07T02:36:22;14.50;99.90
47022;DHT22;32779;52.264;6.154;2023-05-07T02:38:47;14.60;99.90
47022;DHT22;32779;52.264;6.154;2023-05-07T02:41:13;14.60;99.90
47022;DHT22;32779;52.264;6.154;2023-05-07T02:43:38;14.60;99.90
47022;DHT22;32779;52.264;6.154;2023-05-07T02:46:05;14.60;99.90
47022;DHT22;32779;52.264;6.154;2023-05-07T02:48:31;14.60;99.90
47022;DHT22;32779;52.264;6.154;2023-05-07T02:50:57;14.50;99.90
47022;DHT22;32779;52.264;6.154;2023-05-07T02:53:23;14.50;99.90
47022;DHT22;32779;52.264;6.154;2023-05-07T02:55:51;14.50;99.90
47022;DHT22;32779;52.264;6.154;2023-05-07T02:58:17;14.50;99.90
47022;DHT22;32779;52.264;6.154;2023-05-07T03:00:43;14.50;99.90
47022;DHT22;32779;52.264;6.154;2023-05-07T03:03:08;14.50;99.90
47022;DHT22;32779;52.264;6.154;2023-05-07T03:05:34;14.40;99.90
47022;DHT22;32779;52.264;6.154;2023-05-07T03:08:00;14.50;99.90
47022;DHT22;32779;52.264;6.154;2023-05-07T03:10:25;14.40;99.90
47022;DHT22;32779;52.264;6.154;2023-05-07T03:12:51;14.40;99.90
47022;DHT22;32779;52.264;6.154;2023-05-07T03:15:16;14.40;99.90
47022;DHT22;32779;52.264;6.154;2023-05-07T03:17:42;14.40;99.90
47022;DHT22;32779;52.264;6.154;2023-05-07T03:20:08;14.30;99.90
47022;DHT22;32779;52.264;6.154;2023-05-07T03:22:34;14.30;99.90
47022;DHT22;32779;52.264;6.154;2023-05-07T03:25:00;14.30;99.90
47022;DHT22;32779;52.264;6.154;2023-05-07T03:27:26;14.30;99.90
47022;DHT22;32779;52.264;6.154;2023-05-07T03:29:51;14.30;99.90
47022;DHT22;32779;52.264;6.154;2023-05-07T03:32:17;14.30;99.90
47022;DHT22;32779;52.264;6.154;2023-05-07T03:34:42;14.30;99.90
47022;DHT22;32779;52.264;6.154;2023-05-07T03:37:08;14.20;99.90
47022;DHT22;32779;52.264;6.154;2023-05-07T03:39:33;14.20;99.90
47022;DHT22;32779;52.264;6.154;2023-05-07T03:41:59;14.20;99.90
47022;DHT22;32779;52.264;6.154;2023-05-07T03:44:24;14.20;99.90
47022;DHT22;32779;52.264;6.154;2023-05-07T03:46:50;14.20;99.90
47022;DHT22;32779;52.264;6.154;2023-05-07T03:49:15;14.20;99.90
47022;DHT22;32779;52.264;6.154;2023-05-07T03:51:41;14.20;99.90
47022;DHT22;32779;52.264;6.154;2023-05-07T03:54:07;14.20;99.90
47022;DHT22;32779;52.264;6.154;2023-05-07T03:56:32;14.10;99.90
47022;DHT22;32779;52.264;6.154;2023-05-07T03:58:58;14.10;99.90
47022;DHT22;32779;52.264;6.154;2023-05-07T04:01:23;14.10;99.90
47022;DHT22;32779;52.264;6.154;2023-05-07T04:03:49;14.00;99.90
47022;DHT22;32779;52.264;6.154;2023-05-07T04:06:15;14.10;99.90
47022;DHT22;32779;52.264;6.154;2023-05-07T04:08:42;14.00;99.90
47022;DHT22;32779;52.264;6.154;2023-05-07T04:11:07;14.00;99.90
47022;DHT22;32779;52.264;6.154;2023-05-07T04:13:33;14.00;99.90
47022;DHT22;32779;52.264;6.154;2023-05-07T04:15:58;14.00;99.90
47022;DHT22;32779;52.264;6.154;2023-05-07T04:18:24;13.90;99.90
47022;DHT22;32779;52.264;6.154;2023-05-07T04:20:49;13.90;99.90
47022;DHT22;32779;52.264;6.154;2023-05-07T04:23:15;13.90;99.90
47022;DHT22;32779;52.264;6.154;2023-05-07T04:25:41;13.80;99.90
47022;DHT22;32779;52.264;6.154;2023-05-07T04:28:06;13.80;99.90
47022;DHT22;32779;52.264;6.154;2023-05-07T04:30:32;13.80;99.90
47022;DHT22;32779;52.264;6.154;2023-05-07T04:32:58;13.80;99.90
47022;DHT22;32779;52.264;6.154;2023-05-07T04:35:23;13.80;99.90
47022;DHT22;32779;52.264;6.154;2023-05-07T04:37:49;13.80;99.90
47022;DHT22;32779;52.264;6.154;2023-05-07T04:40:15;13.70;99.90
47022;DHT22;32779;52.264;6.154;2023-05-07T04:42:41;13.70;99.90
47022;DHT22;32779;52.264;6.154;2023-05-07T04:45:07;13.70;99.90
47022;DHT22;32779;52.264;6.154;2023-05-07T04:47:34;13.70;99.90
47022;DHT22;32779;52.264;6.154;2023-05-07T04:49:59;13.70;99.90
47022;DHT22;32779;52.264;6.154;2023-05-07T04:52:25;13.70;99.90
47022;DHT22;32779;52.264;6.154;2023-05-07T04:54:50;13.70;99.90
47022;DHT22;32779;52.264;6.154;2023-05-07T04:57:16;13.70;99.90
47022;DHT22;32779;52.264;6.154;2023-05-07T04:59:43;13.70;99.90
47022;DHT22;32779;52.264;6.154;2023-05-07T05:02:10;13.70;99.90
47022;DHT22;32779;52.264;6.154;2023-05-07T05:04:36;13.70;99.90
47022;DHT22;32779;52.264;6.154;2023-05-07T05:07:02;13.70;99.90
47022;DHT22;32779;52.264;6.154;2023-05-07T05:09:29;13.80;99.90
47022;DHT22;32779;52.264;6.154;2023-05-07T05:11:55;13.70;99.90
47022;DHT22;32779;52.264;6.154;2023-05-07T05:14:21;13.70;99.90
47022;DHT22;32779;52.264;6.154;2023-05-07T05:16:46;13.70;99.90
47022;DHT22;32779;52.264;6.154;2023-05-07T05:19:12;13.70;99.90
47022;DHT22;32779;52.264;6.154;2023-05-07T05:21:37;13.70;99.90
47022;DHT22;32779;52.264;6.154;2023-05-07T05:24:03;13.70;99.90
47022;DHT22;32779;52.264;6.154;2023-05-07T05:26:28;13.70;99.90
47022;DHT22;32779;52.264;6.154;2023-05-07T05:28:54;13.70;99.90
47022;DHT22;32779;52.264;6.154;2023-05-07T05:31:20;13.70;99.90
47022;DHT22;32779;52.264;6.154;2023-05-07T05:33:45;13.70;99.90
47022;DHT22;32779;52.264;6.154;2023-05-07T05:36:11;13.70;99.90
47022;DHT22;32779;52.264;6.154;2023-05-07T05:38:38;13.60;99.90
47022;DHT22;32779;52.264;6.154;2023-05-07T05:41:03;13.60;99.90
47022;DHT22;32779;52.264;6.154;2023-05-07T05:43:29;13.60;99.90
47022;DHT22;32779;52.264;6.154;2023-05-07T05:45:56;13.50;99.90
47022;DHT22;32779;52.264;6.154;2023-05-07T05:48:21;13.50;99.90
47022;DHT22;32779;52.264;6.154;2023-05-07T05:50:48;13.50;99.90
47022;DHT22;32779;52.264;6.154;2023-05-07T05:53:13;13.50;99.90
47022;DHT22;32779;52.264;6.154;2023-05-07T05:55:39;13.60;99.90
47022;DHT22;32779;52.264;6.154;2023-05-07T05:58:05;13.60;99.90
47022;DHT22;32779;52.264;6.154;2023-05-07T06:00:30;13.60;99.90
47022;DHT22;32779;52.264;6.154;2023-05-07T06:02:56;13.70;99.90
47022;DHT22;32779;52.264;6.154;2023-05-07T06:05:21;13.70;99.90
47022;DHT22;32779;52.264;6.154;2023-05-07T06:07:47;13.70;99.90
47022;DHT22;32779;52.264;6.154;2023-05-07T06:10:12;13.70;99.90
47022;DHT22;32779;52.264;6.154;2023-05-07T06:12:38;13.70;99.90
47022;DHT22;32779;52.264;6.154;2023-05-07T06:15:04;13.70;99.90
47022;DHT22;32779;52.264;6.154;2023-05-07T06:17:29;13.80;99.90
47022;DHT22;32779;52.264;6.154;2023-05-07T06:19:55;13.90;99.90
47022;DHT22;32779;52.264;6.154;2023-05-07T06:22:21;14.00;99.90
47022;DHT22;32779;52.264;6.154;2023-05-07T06:24:47;14.00;99.90
47022;DHT22;32779;52.264;6.154;2023-05-07T06:27:12;14.00;99.90
47022;DHT22;32779;52.264;6.154;2023-05-07T06:29:38;14.00;99.90
47022;DHT22;32779;52.264;6.154;2023-05-07T06:32:07;14.00;99.90
47022;DHT22;32779;52.264;6.154;2023-05-07T06:34:33;14.00;99.90
47022;DHT22;32779;52.264;6.154;2023-05-07T06:36:58;14.00;99.90
47022;DHT22;32779;52.264;6.154;2023-05-07T06:39:24;14.00;99.90
47022;DHT22;32779;52.264;6.154;2023-05-07T06:41:49;14.00;99.90
47022;DHT22;32779;52.264;6.154;2023-05-07T06:44:15;14.10;99.90
47022;DHT22;32779;52.264;6.154;2023-05-07T06:46:41;14.00;99.90
47022;DHT22;32779;52.264;6.154;2023-05-07T06:49:06;14.00;99.90
47022;DHT22;32779;52.264;6.154;2023-05-07T06:51:32;14.00;99.90
47022;DHT22;32779;52.264;6.154;2023-05-07T06:53:57;14.00;99.90
47022;DHT22;32779;52.264;6.154;2023-05-07T06:56:23;14.00;99.90
47022;DHT22;32779;52.264;6.154;2023-05-07T06:58:49;14.10;99.90
47022;DHT22;32779;52.264;6.154;2023-05-07T07:01:15;14.10;99.90
47022;DHT22;32779;52.264;6.154;2023-05-07T07:03:40;14.10;99.90
47022;DHT22;32779;52.264;6.154;2023-05-07T07:06:06;14.10;99.90
47022;DHT22;32779;52.264;6.154;2023-05-07T07:08:31;14.10;99.90
47022;DHT22;32779;52.264;6.154;2023-05-07T07:10:57;14.20;99.90
47022;DHT22;32779;52.264;6.154;2023-05-07T07:13:23;14.20;99.90
47022;DHT22;32779;52.264;6.154;2023-05-07T07:15:48;14.20;99.90
47022;DHT22;32779;52.264;6.154;2023-05-07T07:18:14;14.30;99.90
47022;DHT22;32779;52.264;6.154;2023-05-07T07:20:40;14.30;99.90
47022;DHT22;32779;52.264;6.154;2023-05-07T07:23:06;14.20;99.90
47022;DHT22;32779;52.264;6.154;2023-05-07T07:25:31;14.30;99.90
47022;DHT22;32779;52.264;6.154;2023-05-07T07:27:57;14.30;99.90
47022;DHT22;32779;52.264;6.154;2023-05-07T07:30:23;14.30;99.90
47022;DHT22;32779;52.264;6.154;2023-05-07T07:32:48;14.30;99.90
47022;DHT22;32779;52.264;6.154;2023-05-07T07:35:14;14.40;99.90
47022;DHT22;32779;52.264;6.154;2023-05-07T07:37:40;14.40;99.90
47022;DHT22;32779;52.264;6.154;2023-05-07T07:40:06;14.50;99.90
47022;DHT22;32779;52.264;6.154;2023-05-07T07:42:32;14.60;99.90
47022;DHT22;32779;52.264;6.154;2023-05-07T07:44:58;14.60;99.90
47022;DHT22;32779;52.264;6.154;2023-05-07T07:47:23;14.80;99.90
47022;DHT22;32779;52.264;6.154;2023-05-07T07:49:49;14.80;99.90
47022;DHT22;32779;52.264;6.154;2023-05-07T07:52:14;14.80;99.90
47022;DHT22;32779;52.264;6.154;2023-05-07T07:54:40;14.80;99.90
47022;DHT22;32779;52.264;6.154;2023-05-07T07:57:06;14.80;99.90
47022;DHT22;32779;52.264;6.154;2023-05-07T07:59:31;14.80;99.90
47022;DHT22;32779;52.264;6.154;2023-05-07T08:01:57;14.90;99.90
47022;DHT22;32779;52.264;6.154;2023-05-07T08:04:23;15.10;99.90
47022;DHT22;32779;52.264;6.154;2023-05-07T08:06:48;15.20;99.90
47022;DHT22;32779;52.264;6.154;2023-05-07T08:09:14;15.40;99.90
47022;DHT22;32779;52.264;6.154;2023-05-07T08:11:39;15.60;99.90
47022;DHT22;32779;52.264;6.154;2023-05-07T08:14:05;15.60;99.90
47022;DHT22;32779;52.264;6.154;2023-05-07T08:16:31;15.60;99.90
47022;DHT22;32779;52.264;6.154;2023-05-07T08:18:56;15.60;99.90
47022;DHT22;32779;52.264;6.154;2023-05-07T08:21:22;15.70;99.90
47022;DHT22;32779;52.264;6.154;2023-05-07T08:23:48;15.80;99.90
47022;DHT22;32779;52.264;6.154;2023-05-07T08:26:13;15.90;99.90
47022;DHT22;32779;52.264;6.154;2023-05-07T08:28:39;15.90;99.90
47022;DHT22;32779;52.264;6.154;2023-05-07T08:31:05;16.00;99.90
47022;DHT22;32779;52.264;6.154;2023-05-07T08:33:30;16.00;99.90
47022;DHT22;32779;52.264;6.154;2023-05-07T08:35:56;16.00;99.90
47022;DHT22;32779;52.264;6.154;2023-05-07T08:38:21;16.00;99.90
47022;DHT22;32779;52.264;6.154;2023-05-07T08:40:47;16.00;99.90
47022;DHT22;32779;52.264;6.154;2023-05-07T08:43:13;16.00;99.90
47022;DHT22;32779;52.264;6.154;2023-05-07T08:45:40;16.00;99.90
47022;DHT22;32779;52.264;6.154;2023-05-07T08:48:09;16.10;99.90
47022;DHT22;32779;52.264;6.154;2023-05-07T08:50:39;16.10;99.90
47022;DHT22;32779;52.264;6.154;2023-05-07T08:53:05;16.20;99.90
47022;DHT22;32779;52.264;6.154;2023-05-07T08:55:31;16.30;99.90
47022;DHT22;32779;52.264;6.154;2023-05-07T08:57:56;16.30;99.90
47022;DHT22;32779;52.264;6.154;2023-05-07T09:00:22;16.40;99.90
47022;DHT22;32779;52.264;6.154;2023-05-07T09:02:48;16.20;99.90
47022;DHT22;32779;52.264;6.154;2023-05-07T09:05:13;16.30;99.90
47022;DHT22;32779;52.264;6.154;2023-05-07T09:07:39;16.40;99.90
47022;DHT22;32779;52.264;6.154;2023-05-07T09:10:05;16.50;99.90
47022;DHT22;32779;52.264;6.154;2023-05-07T09:12:31;16.50;99.90
47022;DHT22;32779;52.264;6.154;2023-05-07T09:14:58;16.50;99.90
47022;DHT22;32779;52.264;6.154;2023-05-07T09:17:24;16.50;99.90
47022;DHT22;32779;52.264;6.154;2023-05-07T09:19:49;16.60;99.90
47022;DHT22;32779;52.264;6.154;2023-05-07T09:22:15;16.60;99.90
47022;DHT22;32779;52.264;6.154;2023-05-07T09:24:43;16.70;99.90
47022;DHT22;32779;52.264;6.154;2023-05-07T09:27:12;16.90;99.90
47022;DHT22;32779;52.264;6.154;2023-05-07T09:29:38;17.10;99.90
47022;DHT22;32779;52.264;6.154;2023-05-07T09:32:07;17.20;99.90
47022;DHT22;32779;52.264;6.154;2023-05-07T09:34:33;17.30;99.90
47022;DHT22;32779;52.264;6.154;2023-05-07T09:37:01;17.40;99.90
47022;DHT22;32779;52.264;6.154;2023-05-07T09:39:48;17.60;99.90
47022;DHT22;32779;52.264;6.154;2023-05-07T09:42:14;17.70;99.90
47022;DHT22;32779;52.264;6.154;2023-05-07T09:44:43;17.60;99.90
47022;DHT22;32779;52.264;6.154;2023-05-07T09:47:10;17.60;99.90
47022;DHT22;32779;52.264;6.154;2023-05-07T09:49:38;17.60;99.90
47022;DHT22;32779;52.264;6.154;2023-05-07T09:52:05;17.50;99.90
47022;DHT22;32779;52.264;6.154;2023-05-07T09:54:35;17.50;99.90
47022;DHT22;32779;52.264;6.154;2023-05-07T09:57:04;17.50;99.90
47022;DHT22;32779;52.264;6.154;2023-05-07T09:59:31;17.60;99.90
47022;DHT22;32779;52.264;6.154;2023-05-07T10:01:58;17.70;99.90
47022;DHT22;32779;52.264;6.154;2023-05-07T10:04:25;17.80;99.90
47022;DHT22;32779;52.264;6.154;2023-05-07T10:06:51;17.80;99.90
47022;DHT22;32779;52.264;6.154;2023-05-07T10:09:17;17.90;99.90
47022;DHT22;32779;52.264;6.154;2023-05-07T10:11:43;17.90;99.90
47022;DHT22;32779;52.264;6.154;2023-05-07T10:14:10;18.00;99.90
47022;DHT22;32779;52.264;6.154;2023-05-07T10:16:36;18.00;99.90
47022;DHT22;32779;52.264;6.154;2023-05-07T10:19:03;18.00;99.90
47022;DHT22;32779;52.264;6.154;2023-05-07T10:21:30;18.10;99.90
47022;DHT22;32779;52.264;6.154;2023-05-07T10:24:04;18.20;99.90
47022;DHT22;32779;52.264;6.154;2023-05-07T10:26:32;18.10;99.90
47022;DHT22;32779;52.264;6.154;2023-05-07T10:29:07;18.20;99.90
47022;DHT22;32779;52.264;6.154;2023-05-07T10:31:54;18.30;99.90
47022;DHT22;32779;52.264;6.154;2023-05-07T10:34:35;18.40;99.90
47022;DHT22;32779;52.264;6.154;2023-05-07T10:37:02;18.30;99.90
47022;DHT22;32779;52.264;6.154;2023-05-07T10:39:28;18.30;99.90
47022;DHT22;32779;52.264;6.154;2023-05-07T10:41:55;18.40;99.90
47022;DHT22;32779;52.264;6.154;2023-05-07T10:44:29;18.60;99.90
47022;DHT22;32779;52.264;6.154;2023-05-07T10:47:09;18.80;99.90
47022;DHT22;32779;52.264;6.154;2023-05-07T10:52:30;18.90;99.90
47022;DHT22;32779;52.264;6.154;2023-05-07T10:55:18;18.90;99.90
47022;DHT22;32779;52.264;6.154;2023-05-07T10:57:45;18.80;99.90
47022;DHT22;32779;52.264;6.154;2023-05-07T11:05:28;18.80;99.90
47022;DHT22;32779;52.264;6.154;2023-05-07T11:08:04;18.80;99.90
47022;DHT22;32779;52.264;6.154;2023-05-07T11:10:55;18.90;99.90
47022;DHT22;32779;52.264;6.154;2023-05-07T11:13:48;18.80;99.90
47022;DHT22;32779;52.264;6.154;2023-05-07T11:16:24;18.90;99.90
47022;DHT22;32779;52.264;6.154;2023-05-07T11:18:55;18.90;99.90
47022;DHT22;32779;52.264;6.154;2023-05-07T11:21:41;19.00;99.90
47022;DHT22;32779;52.264;6.154;2023-05-07T11:24:08;19.00;99.90
47022;DHT22;32779;52.264;6.154;2023-05-07T11:26:48;18.90;99.90
47022;DHT22;32779;52.264;6.154;2023-05-07T11:29:19;18.90;99.90
47022;DHT22;32779;52.264;6.154;2023-05-07T11:31:49;19.00;99.90
47022;DHT22;32779;52.264;6.154;2023-05-07T11:34:24;19.10;99.90
47022;DHT22;32779;52.264;6.154;2023-05-07T11:36:50;19.10;99.90
47022;DHT22;32779;52.264;6.154;2023-05-07T11:39:30;19.10;99.90
47022;DHT22;32779;52.264;6.154;2023-05-07T11:42:01;19.30;99.90
47022;DHT22;32779;52.264;6.154;2023-05-07T11:44:45;19.20;99.90
47022;DHT22;32779;52.264;6.154;2023-05-07T11:47:17;19.30;99.90
47022;DHT22;32779;52.264;6.154;2023-05-07T11:49:43;19.40;99.90
47022;DHT22;32779;52.264;6.154;2023-05-07T11:52:09;19.50;99.90
47022;DHT22;32779;52.264;6.154;2023-05-07T11:54:36;19.50;99.90
47022;DHT22;32779;52.264;6.154;2023-05-07T11:57:02;19.50;99.90
47022;DHT22;32779;52.264;6.154;2023-05-07T11:59:27;19.60;99.90
47022;DHT22;32779;52.264;6.154;2023-05-07T12:01:57;19.70;99.90
47022;DHT22;32779;52.264;6.154;2023-05-07T12:04:23;19.70;99.90
47022;DHT22;32779;52.264;6.154;2023-05-07T12:06:53;19.70;99.90
47022;DHT22;32779;52.264;6.154;2023-05-07T12:09:18;19.60;99.90
47022;DHT22;32779;52.264;6.154;2023-05-07T12:11:46;19.70;99.90
47022;DHT22;32779;52.264;6.154;2023-05-07T12:14:11;19.80;99.90
47022;DHT22;32779;52.264;6.154;2023-05-07T12:16:38;19.90;99.90
47022;DHT22;32779;52.264;6.154;2023-05-07T12:19:05;20.10;99.90
47022;DHT22;32779;52.264;6.154;2023-05-07T12:21:31;20.20;99.90
47022;DHT22;32779;52.264;6.154;2023-05-07T12:23:58;20.30;99.90
47022;DHT22;32779;52.264;6.154;2023-05-07T12:26:24;20.40;99.90
47022;DHT22;32779;52.264;6.154;2023-05-07T12:28:50;20.60;99.90
47022;DHT22;32779;52.264;6.154;2023-05-07T12:31:16;20.60;99.90
47022;DHT22;32779;52.264;6.154;2023-05-07T12:33:42;20.70;99.90
47022;DHT22;32779;52.264;6.154;2023-05-07T12:36:07;20.60;99.90
47022;DHT22;32779;52.264;6.154;2023-05-07T12:38:40;20.60;99.90
47022;DHT22;32779;52.264;6.154;2023-05-07T12:41:09;20.70;99.90
47022;DHT22;32779;52.264;6.154;2023-05-07T12:43:37;20.80;99.90
47022;DHT22;32779;52.264;6.154;2023-05-07T12:46:05;20.80;99.90
47022;DHT22;32779;52.264;6.154;2023-05-07T12:48:31;20.90;99.90
47022;DHT22;32779;52.264;6.154;2023-05-07T12:50:58;20.80;99.90
47022;DHT22;32779;52.264;6.154;2023-05-07T12:53:26;20.90;99.90
47022;DHT22;32779;52.264;6.154;2023-05-07T12:55:53;20.90;99.90
47022;DHT22;32779;52.264;6.154;2023-05-07T12:58:30;20.90;99.90
47022;DHT22;32779;52.264;6.154;2023-05-07T13:00:59;21.00;99.90
47022;DHT22;32779;52.264;6.154;2023-05-07T13:03:27;20.90;99.90
47022;DHT22;32779;52.264;6.154;2023-05-07T13:05:55;20.80;99.90
47022;DHT22;32779;52.264;6.154;2023-05-07T13:10:50;20.70;99.90
47022;DHT22;32779;52.264;6.154;2023-05-07T13:13:15;20.80;99.90
47022;DHT22;32779;52.264;6.154;2023-05-07T13:15:41;20.80;99.90
47022;DHT22;32779;52.264;6.154;2023-05-07T13:18:06;20.80;99.90
47022;DHT22;32779;52.264;6.154;2023-05-07T13:20:32;20.70;99.90
47022;DHT22;32779;52.264;6.154;2023-05-07T13:22:57;20.70;99.90
47022;DHT22;32779;52.264;6.154;2023-05-07T13:25:23;20.80;99.90
47022;DHT22;32779;52.264;6.154;2023-05-07T13:27:49;20.90;99.90
47022;DHT22;32779;52.264;6.154;2023-05-07T13:30:14;20.90;99.90
47022;DHT22;32779;52.264;6.154;2023-05-07T13:32:40;20.90;99.90
47022;DHT22;32779;52.264;6.154;2023-05-07T13:35:06;21.00;99.90
47022;DHT22;32779;52.264;6.154;2023-05-07T13:37:32;21.00;99.90
47022;DHT22;32779;52.264;6.154;2023-05-07T13:39:57;21.00;99.90
47022;DHT22;32779;52.264;6.154;2023-05-07T13:42:23;21.00;99.90
47022;DHT22;32779;52.264;6.154;2023-05-07T13:44:48;21.00;99.90
47022;DHT22;32779;52.264;6.154;2023-05-07T13:47:14;21.10;99.90
47022;DHT22;32779;52.264;6.154;2023-05-07T13:49:40;21.10;99.90
47022;DHT22;32779;52.264;6.154;2023-05-07T13:52:05;21.00;99.90
47022;DHT22;32779;52.264;6.154;2023-05-07T13:54:31;21.00;99.90
47022;DHT22;32779;52.264;6.154;2023-05-07T13:56:56;20.90;99.90
47022;DHT22;32779;52.264;6.154;2023-05-07T13:59:22;21.00;99.90
47022;DHT22;32779;52.264;6.154;2023-05-07T14:01:47;21.00;99.90
47022;DHT22;32779;52.264;6.154;2023-05-07T14:04:13;21.10;99.90
47022;DHT22;32779;52.264;6.154;2023-05-07T14:06:38;21.10;99.90
47022;DHT22;32779;52.264;6.154;2023-05-07T14:09:04;21.10;99.90
47022;DHT22;32779;52.264;6.154;2023-05-07T14:11:30;21.00;99.90
47022;DHT22;32779;52.264;6.154;2023-05-07T14:13:55;21.00;99.90
47022;DHT22;32779;52.264;6.154;2023-05-07T14:16:22;21.10;99.90
47022;DHT22;32779;52.264;6.154;2023-05-07T14:18:47;21.00;99.90
47022;DHT22;32779;52.264;6.154;2023-05-07T14:21:13;20.80;99.90
47022;DHT22;32779;52.264;6.154;2023-05-07T14:23:39;20.80;99.90
47022;DHT22;32779;52.264;6.154;2023-05-07T14:26:05;20.70;99.90
47022;DHT22;32779;52.264;6.154;2023-05-07T14:28:30;20.80;99.90
47022;DHT22;32779;52.264;6.154;2023-05-07T14:30:56;20.90;99.90
47022;DHT22;32779;52.264;6.154;2023-05-07T14:33:22;21.00;99.90
47022;DHT22;32779;52.264;6.154;2023-05-07T14:35:47;21.00;99.90
47022;DHT22;32779;52.264;6.154;2023-05-07T14:38:14;21.00;99.90
47022;DHT22;32779;52.264;6.154;2023-05-07T14:40:40;21.10;99.90
47022;DHT22;32779;52.264;6.154;2023-05-07T14:43:06;21.00;99.90
47022;DHT22;32779;52.264;6.154;2023-05-07T14:45:32;20.90;99.90
47022;DHT22;32779;52.264;6.154;2023-05-07T14:47:57;20.90;99.90
47022;DHT22;32779;52.264;6.154;2023-05-07T14:50:23;20.80;99.90
47022;DHT22;32779;52.264;6.154;2023-05-07T14:52:48;20.80;99.90
47022;DHT22;32779;52.264;6.154;2023-05-07T14:55:14;20.80;99.90
47022;DHT22;32779;52.264;6.154;2023-05-07T14:57:40;20.80;99.90
47022;DHT22;32779;52.264;6.154;2023-05-07T15:00:06;20.70;99.90
47022;DHT22;32779;52.264;6.154;2023-05-07T15:02:32;20.70;99.90
47022;DHT22;32779;52.264;6.154;2023-05-07T15:04:59;20.70;99.90
47022;DHT22;32779;52.264;6.154;2023-05-07T15:07:24;20.60;99.90
47022;DHT22;32779;52.264;6.154;2023-05-07T15:09:50;20.60;99.90
47022;DHT22;32779;52.264;6.154;2023-05-07T15:12:16;20.60;99.90
47022;DHT22;32779;52.264;6.154;2023-05-07T15:14:42;20.50;99.90
47022;DHT22;32779;52.264;6.154;2023-05-07T15:17:07;20.50;99.90
47022;DHT22;32779;52.264;6.154;2023-05-07T15:19:33;20.50;99.90
47022;DHT22;32779;52.264;6.154;2023-05-07T15:22:00;20.40;99.90
47022;DHT22;32779;52.264;6.154;2023-05-07T15:24:29;20.30;99.90
47022;DHT22;32779;52.264;6.154;2023-05-07T15:26:55;20.30;99.90
47022;DHT22;32779;52.264;6.154;2023-05-07T15:29:20;20.30;99.90
47022;DHT22;32779;52.264;6.154;2023-05-07T15:31:46;20.30;99.90
47022;DHT22;32779;52.264;6.154;2023-05-07T15:34:12;20.20;99.90
47022;DHT22;32779;52.264;6.154;2023-05-07T15:36:40;20.30;99.90
47022;DHT22;32779;52.264;6.154;2023-05-07T15:39:05;20.20;99.90